Terminal Aerodrome Forecast
Issued by NWS

Home | Current Version | Previous Version | Text Only | Print | Product List | Glossary On
Versions: 1 2 3 4 5 6 7 8 9 10 11 12
886
FTUS45 KTFX 231720
TAFHLN
TAF
KHLN 231720Z 2318/2418 35009KT P6SM VCSH SCT025 BKN035
      TEMPO 2318/2320 BKN025
     FM240000 03007KT P6SM SCT040 BKN080
     FM240100 03006KT P6SM FEW045 SCT110=

USA.gov is the U.S. government's official web portal to all federal, state and local government web resources and services.